Time;durP1;ratioP1;P1;durP2;ratioP2;P2;SDS_P1;SDS_P2;PMS_P1;PMS_P2;Temp;Humidity;BMP_temperature;BMP_pressure;BME280_temperature;BME280_humidity;BME280_pressure;Samples;Min_cycle;Max_cycle;Signal;HPM_P1;HPM_P2
2022/12/19 00:00:44;;;;;;;7.70;3.50;;;;;;;11.61;55.58;99580.22;5092865;28;20069;-48
2022/12/19 00:03:10;;;;;;;9.73;3.20;;;;;;;11.58;56.70;99594.53;5091480;28;20024;-48
2022/12/19 00:05:38;;;;;;;6.00;2.90;;;;;;;11.72;56.76;99581.56;5092779;28;20024;-48
2022/12/19 00:08:05;;;;;;;6.30;2.85;;;;;;;11.83;56.95;99582.88;5092657;28;20048;-48
2022/12/19 00:10:30;;;;;;;4.43;2.10;;;;;;;11.88;57.27;99576.06;5091352;28;20039;-49
2022/12/19 00:12:56;;;;;;;6.68;2.05;;;;;;;11.87;56.62;99568.34;5091363;28;20153;-48
2022/12/19 00:15:21;;;;;;;3.70;1.70;;;;;;;11.96;56.60;99577.78;5092632;28;20371;-48
2022/12/19 00:17:47;;;;;;;3.80;1.63;;;;;;;12.00;56.38;99589.56;5092551;28;20157;-48
2022/12/19 00:20:12;;;;;;;7.38;2.13;;;;;;;11.87;56.94;99589.38;5092473;28;20505;-48
2022/12/19 00:22:38;;;;;;;2.95;2.50;;;;;;;11.76;57.40;99588.88;5074062;28;20504;-49
2022/12/19 00:25:04;;;;;;;4.28;2.15;;;;;;;11.82;57.86;99576.81;5091141;28;20124;-48
2022/12/19 00:27:33;;;;;;;5.38;1.90;;;;;;;11.93;57.60;99594.78;5092402;28;20020;-49
2022/12/19 00:29:59;;;;;;;5.95;1.75;;;;;;;12.09;57.12;99588.47;5092218;28;20028;-49
2022/12/19 00:32:24;;;;;;;3.92;2.30;;;;;;;12.10;56.81;99597.97;5091282;28;20026;-49
2022/12/19 00:34:50;;;;;;;7.32;1.98;;;;;;;12.10;57.90;99582.19;5090979;28;20395;-49
2022/12/19 00:37:16;;;;;;;5.40;1.90;;;;;;;12.29;57.10;99557.03;5092227;28;20122;-49
2022/12/19 00:39:41;;;;;;;9.25;2.58;;;;;;;12.43;57.03;99575.56;5092216;28;20093;-48
2022/12/19 00:42:07;;;;;;;4.03;1.80;;;;;;;12.60;56.22;99550.59;5092158;28;20016;-49
2022/12/19 00:44:32;;;;;;;3.70;1.60;;;;;;;12.71;56.29;99542.16;5091084;28;20073;-49
2022/12/19 00:46:58;;;;;;;4.53;2.38;;;;;;;12.86;55.52;99552.59;5073963;28;20024;-49
2022/12/19 00:49:24;;;;;;;3.38;1.45;;;;;;;12.92;55.65;99551.00;5090796;28;20498;-48
2022/12/19 00:51:50;;;;;;;4.07;1.67;;;;;;;12.92;55.60;99543.09;5090890;28;20052;-49
2022/12/19 00:54:15;;;;;;;4.32;1.70;;;;;;;12.94;55.63;99525.28;5092233;28;20486;-49
2022/12/19 00:56:41;;;;;;;24.02;2.95;;;;;;;13.02;55.26;99533.03;5090646;28;20498;-48
2022/12/19 00:59:08;;;;;;;6.72;1.95;;;;;;;12.97;56.35;99520.41;5091929;28;20032;-49
2022/12/19 01:01:37;;;;;;;3.47;1.40;;;;;;;13.15;56.01;99527.00;5091949;28;20020;-49
2022/12/19 01:04:04;;;;;;;2.20;1.10;;;;;;;13.14;55.32;99528.03;5090534;28;20028;-48
2022/12/19 01:06:30;;;;;;;1.92;1.15;;;;;;;13.19;55.11;99521.13;5090559;28;20060;-48
2022/12/19 01:08:55;;;;;;;4.18;1.27;;;;;;;13.17;55.71;99523.16;5091769;28;20065;-48
2022/12/19 01:12:44;;;;;;;4.57;1.30;;;;;;;13.16;55.58;99500.44;5090503;28;20020;-48
2022/12/19 01:14:07;;;;;;;;;;;;;;;13.29;55.83;99543.69;5092171;28;20075;-49
2022/12/19 01:16:32;;;;;;;;;;;;;;;13.35;55.19;99524.47;5090880;28;19973;-48
2022/12/19 01:18:58;;;;;;;6.47;1.50;;;;;;;13.30;56.29;99548.78;5091811;28;19998;-48
2022/12/19 01:21:23;;;;;;;4.60;1.65;;;;;;;13.30;56.18;99538.25;5091970;28;20024;-48
2022/12/19 01:23:49;;;;;;;5.28;1.48;;;;;;;13.37;55.95;99533.81;5090085;28;20422;-49
2022/12/19 01:26:14;;;;;;;8.30;2.78;;;;;;;13.36;56.13;99511.09;5090370;28;20028;-49
2022/12/19 01:28:40;;;;;;;2.38;1.33;;;;;;;13.35;55.59;99543.72;5091616;28;20028;-49
2022/12/19 01:31:06;;;;;;;5.45;2.05;;;;;;;13.31;56.67;99544.31;5091597;28;20028;-49
2022/12/19 01:33:31;;;;;;;3.42;1.20;;;;;;;13.44;55.54;99533.00;5091674;28;20489;-48
2022/12/19 01:36:00;;;;;;;6.25;1.40;;;;;;;13.56;55.53;99553.34;5090276;28;20111;-48
2022/12/19 01:38:26;;;;;;;2.55;1.33;;;;;;;13.55;56.38;99557.00;5091840;28;20040;-48
2022/12/19 01:40:53;;;;;;;2.22;1.02;;;;;;;13.53;55.74;99547.66;5091512;28;20551;-48
2022/12/19 01:43:20;;;;;;;2.33;1.40;;;;;;;13.45;56.45;99546.00;5091556;28;20554;-48
2022/12/19 01:45:48;;;;;;;3.50;1.42;;;;;;;13.42;56.19;99535.03;5091417;28;20024;-48
2022/12/19 01:48:19;;;;;;;3.20;1.45;;;;;;;13.48;55.60;99536.88;5091380;28;20034;-48
2022/12/19 01:50:57;;;;;;;3.28;1.52;;;;;;;13.34;55.92;99528.94;5091554;28;20031;-48
2022/12/19 01:53:26;;;;;;;5.65;1.30;;;;;;;13.22;56.56;99537.56;5090191;28;20028;-48
2022/12/19 01:55:54;;;;;;;1.73;1.13;;;;;;;13.24;56.73;99539.00;5092273;28;20027;-48
2022/12/19 01:58:20;;;;;;;2.05;1.13;;;;;;;13.31;56.73;99542.50;5093902;28;20077;-48
2022/12/19 02:00:46;;;;;;;3.50;1.17;;;;;;;13.39;56.66;99555.50;5095130;28;20024;-48
2022/12/19 02:03:26;;;;;;;5.85;1.58;;;;;;;13.46;56.11;99550.28;5095236;28;20375;-48
2022/12/19 02:05:53;;;;;;;3.38;1.40;;;;;;;13.43;57.25;99541.94;5095388;28;20024;-48
2022/12/19 02:08:19;;;;;;;4.65;2.05;;;;;;;13.47;56.41;99575.63;5093666;28;20493;-48
2022/12/19 02:10:45;;;;;;;4.50;2.00;;;;;;;13.49;56.78;99562.25;5094923;28;20016;-48
2022/12/19 02:13:11;;;;;;;12.10;5.80;;;;;;;13.52;56.75;99567.09;5093653;28;20042;-48
2022/12/19 02:16:06;;;;;;;11.05;7.65;;;;;;;13.57;56.99;99568.16;5077011;28;20048;-49
2022/12/19 02:18:50;;;;;;;13.98;9.48;;;;;;;13.66;56.26;99574.09;5057742;28;20124;-49
2022/12/19 02:21:44;;;;;;;13.55;11.68;;;;;;;13.69;55.97;99586.88;5095045;28;20032;-49
2022/12/19 02:24:21;;;;;;;5.60;4.20;;;;;;;13.66;56.03;99584.63;5094500;28;20050;-48
2022/12/19 02:26:49;;;;;;;3.17;1.73;;;;;;;13.67;55.56;99580.97;5094700;28;20039;-48
2022/12/19 02:29:28;;;;;;;8.30;2.10;;;;;;;13.63;55.58;99582.38;5094583;28;20481;-48
2022/12/19 02:32:01;;;;;;;4.72;2.10;;;;;;;13.69;57.00;99584.22;5094698;28;20027;-48
2022/12/19 02:34:37;;;;;;;6.10;1.77;;;;;;;13.75;55.92;99564.16;5093291;28;20123;-48
2022/12/19 02:37:19;;;;;;;4.32;1.55;;;;;;;13.86;55.02;99581.22;5093264;28;20032;-49
2022/12/19 02:39:54;;;;;;;3.58;1.42;;;;;;;13.74;55.40;99570.44;5094439;28;20031;-48
2022/12/19 02:42:29;;;;;;;2.40;1.37;;;;;;;13.73;55.32;99577.53;5093331;28;20035;-48
2022/12/19 02:45:00;;;;;;;2.53;1.17;;;;;;;13.70;55.12;99577.94;5093116;28;20028;-48
2022/12/19 02:47:27;;;;;;;4.45;1.38;;;;;;;13.65;55.53;99577.72;5094417;28;20493;-49
2022/12/19 02:49:52;;;;;;;4.82;1.20;;;;;;;13.79;55.52;99592.56;5092902;28;20585;-49
2022/12/19 02:52:19;;;;;;;3.78;1.00;;;;;;;13.88;54.63;99547.53;5092956;28;20118;-49
2022/12/19 02:54:50;;;;;;;5.50;1.25;;;;;;;13.81;54.96;99565.19;5094451;28;20028;-49
2022/12/19 02:57:42;;;;;;;2.22;1.17;;;;;;;13.81;55.06;99573.91;5094438;28;20469;-48
2022/12/19 03:00:20;;;;;;;4.20;1.27;;;;;;;13.79;55.02;99555.63;5086943;28;20028;-49
2022/12/19 03:03:17;;;;;;;5.55;1.60;;;;;;;13.82;54.86;99558.88;5092802;28;20124;-48
2022/12/19 03:05:49;;;;;;;;;;;;;;;13.79;55.09;99570.66;5094424;28;20016;-48
2022/12/19 03:08:27;;;;;;;2.45;1.10;;;;;;;13.75;55.06;99579.97;5093017;28;20399;-48
2022/12/19 03:10:58;;;;;;;5.05;1.40;;;;;;;13.78;55.28;99582.22;5092514;28;20110;-48
2022/12/19 03:13:34;;;;;;;2.67;1.10;;;;;;;13.83;55.12;99589.56;5092518;28;20032;-49
2022/12/19 03:16:02;;;;;;;4.88;1.73;;;;;;;13.97;54.65;99580.66;5093714;28;20020;-49
2022/12/19 03:18:27;;;;;;;2.05;1.20;;;;;;;14.09;54.19;99557.91;5093608;28;20107;-49
2022/12/19 03:21:19;;;;;;;7.28;1.08;;;;;;;14.08;54.29;99556.28;5092238;28;20618;-49
2022/12/19 03:23:46;;;;;;;4.53;1.60;;;;;;;14.13;54.31;99558.34;5092038;28;20096;-49
2022/12/19 03:26:18;;;;;;;3.13;1.15;;;;;;;14.18;53.74;99559.38;5093511;28;20394;-48
2022/12/19 03:28:55;;;;;;;3.03;1.02;;;;;;;14.33;53.07;99561.78;5093668;28;20394;-48
2022/12/19 03:31:26;;;;;;;5.03;1.45;;;;;;;14.30;53.42;99564.81;5092169;28;20501;-49
2022/12/19 03:34:00;;;;;;;3.45;1.20;;;;;;;14.40;53.49;99559.16;5093368;28;20498;-49
2022/12/19 03:36:38;;;;;;;5.88;1.58;;;;;;;14.49;52.73;99562.41;5092193;28;20032;-49
2022/12/19 03:39:07;;;;;;;2.35;1.08;;;;;;;14.34;53.05;99565.25;5093359;28;20024;-49
2022/12/19 03:44:21;;;;;;;19.02;9.13;;;;;;;14.30;54.21;99546.34;5093511;28;20105;-48
2022/12/19 03:46:56;;;;;;;18.05;5.57;;;;;;;14.40;53.86;99538.03;5093068;28;20081;-48
2022/12/19 03:49:22;;;;;;;8.65;5.00;;;;;;;14.61;53.18;99549.41;5093130;28;20056;-48
2022/12/19 03:52:04;;;;;;;6.68;5.57;;;;;;;14.60;52.70;99553.09;5092999;28;20109;-48
2022/12/19 03:54:41;;;;;;;12.65;11.38;;;;;;;14.49;54.05;99562.41;5092064;28;20031;-49
2022/12/19 03:57:23;;;;;;;12.10;10.82;;;;;;;14.58;52.53;99561.19;5093038;28;20084;-49
2022/12/19 03:59:54;;;;;;;28.67;25.80;;;;;;;14.42;53.19;99566.88;5092892;28;20607;-49
2022/12/19 04:02:22;;;;;;;8.02;6.18;;;;;;;14.41;54.40;99565.22;5091584;28;20028;-49
2022/12/19 04:04:53;;;;;;;14.02;11.35;;;;;;;14.46;53.11;99531.91;5091472;28;20024;-48
2022/12/19 04:07:19;;;;;;;9.15;5.75;;;;;;;14.44;53.32;99555.09;5091469;28;20024;-48
2022/12/19 04:09:46;;;;;;;3.50;1.98;;;;;;;14.51;53.21;99570.94;5091347;28;20012;-49
2022/12/19 04:12:17;;;;;;;4.55;2.47;;;;;;;14.52;53.29;99536.38;5091482;28;20521;-48
2022/12/19 04:14:43;;;;;;;2.63;1.23;;;;;;;14.63;53.04;99552.66;5091378;28;20036;-48
2022/12/19 04:17:32;;;;;;;2.05;1.20;;;;;;;14.67;52.68;99553.88;5092593;28;20501;-49
2022/12/19 04:20:10;;;;;;;3.03;1.00;;;;;;;14.56;53.14;99542.09;5092295;28;20027;-49
2022/12/19 04:23:00;;;;;;;2.55;1.20;;;;;;;14.40;53.19;99548.59;5092126;28;20115;-49
2022/12/19 04:25:32;;;;;;;1.77;0.70;;;;;;;14.33;53.38;99537.22;5092450;28;20039;-48
2022/12/19 04:28:04;;;;;;;1.63;0.70;;;;;;;14.20;53.61;99522.19;5091116;28;20027;-48
2022/12/19 04:30:33;;;;;;;2.20;1.00;;;;;;;14.11;54.68;99541.88;5092420;28;20085;-49
2022/12/19 04:32:58;;;;;;;1.50;0.80;;;;;;;14.17;53.76;99549.81;5092328;28;20027;-48
2022/12/19 04:35:24;;;;;;;5.97;1.25;;;;;;;14.08;54.58;99548.38;5090933;28;20024;-49
2022/12/19 04:37:51;;;;;;;3.25;1.25;;;;;;;14.18;54.55;99551.44;5092222;28;20020;-49
2022/12/19 04:40:17;;;;;;;2.92;1.10;;;;;;;14.40;54.64;99538.03;5092220;28;20039;-49
2022/12/19 04:42:42;;;;;;;4.18;1.05;;;;;;;14.58;53.81;99540.88;5090820;28;20020;-49
2022/12/19 04:45:08;;;;;;;6.53;1.23;;;;;;;14.52;54.24;99530.28;5092147;28;20023;-49
2022/12/19 04:47:34;;;;;;;2.67;1.30;;;;;;;14.66;53.10;99537.22;5092092;28;20095;-48
2022/12/19 04:49:59;;;;;;;3.33;1.02;;;;;;;14.87;53.16;99552.03;5090808;28;20020;-48
2022/12/19 04:52:25;;;;;;;2.60;1.05;;;;;;;14.97;52.39;99536.53;5090745;28;20023;-49
2022/12/19 04:54:50;;;;;;;2.60;1.00;;;;;;;14.92;52.43;99544.28;5090702;28;20020;-48
2022/12/19 04:57:16;;;;;;;3.92;1.27;;;;;;;14.92;53.60;99543.47;5090616;28;20516;-49
2022/12/19 04:59:42;;;;;;;6.55;1.08;;;;;;;15.00;53.30;99553.81;5090622;28;20401;-48
2022/12/19 05:02:07;;;;;;;4.35;1.60;;;;;;;15.10;53.30;99548.91;5090626;28;20093;-48
2022/12/19 05:04:33;;;;;;;2.85;1.20;;;;;;;15.23;53.79;99547.22;5091862;28;20027;-49
2022/12/19 05:06:59;;;;;;;4.07;1.52;;;;;;;15.32;52.51;99551.28;5092150;28;20024;-47
2022/12/19 05:09:24;;;;;;;5.78;3.33;;;;;;;15.21;52.51;99550.06;5090472;28;20039;-47
2022/12/19 05:11:50;;;;;;;4.07;1.90;;;;;;;15.12;53.13;99548.69;5091754;28;20021;-47
2022/12/19 05:14:15;;;;;;;9.20;2.22;;;;;;;15.07;53.39;99548.50;5090552;28;20933;-47
2022/12/19 05:16:41;;;;;;;3.95;1.40;;;;;;;15.07;53.62;99544.03;5091747;28;20052;-47
2022/12/19 05:19:07;;;;;;;9.43;2.20;;;;;;;14.87;53.98;99544.09;5091767;28;20020;-47
2022/12/19 05:21:33;;;;;;;5.95;1.30;;;;;;;14.85;53.60;99540.00;5091697;28;20047;-47
2022/12/19 05:23:58;;;;;;;7.38;3.33;;;;;;;14.75;54.18;99530.69;5090135;28;20075;-47
2022/12/19 05:26:24;;;;;;;8.32;2.10;;;;;;;14.74;53.67;99522.97;5091731;28;20038;-47
2022/12/19 05:28:50;;;;;;;5.85;2.28;;;;;;;14.72;54.18;99509.97;5091580;28;20039;-47
2022/12/19 05:31:21;;;;;;;6.72;1.90;;;;;;;14.70;53.83;99516.47;5091904;28;20054;-46
2022/12/19 05:33:47;;;;;;;2.75;1.40;;;;;;;14.37;54.37;99523.41;5095781;28;20039;-47
2022/12/19 05:36:14;;;;;;;10.32;2.33;;;;;;;14.17;55.12;99514.69;5094416;28;20029;-46
2022/12/19 05:38:41;;;;;;;9.80;1.70;;;;;;;14.29;53.98;99513.06;5095614;28;20510;-46
2022/12/19 05:41:09;;;;;;;4.75;2.22;;;;;;;14.18;54.64;99519.75;5095887;28;20024;-46
2022/12/19 05:43:35;;;;;;;6.00;1.50;;;;;;;13.90;55.17;99527.03;5095565;28;20024;-47
2022/12/19 05:46:00;;;;;;;4.15;1.60;;;;;;;13.85;55.58;99535.56;5095495;28;20028;-46
2022/12/19 05:48:26;;;;;;;2.92;1.10;;;;;;;13.90;56.18;99532.31;5094125;28;20039;-47
2022/12/19 05:50:52;;;;;;;10.20;2.38;;;;;;;13.97;56.32;99535.78;5095653;28;20386;-46
2022/12/19 05:53:18;;;;;;;8.02;1.90;;;;;;;14.09;55.66;99534.16;5095377;28;20024;-46
2022/12/19 05:55:44;;;;;;;12.35;5.03;;;;;;;14.01;55.10;99534.38;5095339;28;20099;-47
2022/12/19 05:58:09;;;;;;;6.85;5.07;;;;;;;13.79;55.19;99531.09;5094046;28;20032;-47
2022/12/19 06:00:35;;;;;;;3.85;2.17;;;;;;;13.63;55.89;99527.00;5093883;28;20027;-46
2022/12/19 06:03:01;;;;;;;5.35;3.08;;;;;;;13.38;56.32;99529.34;5095214;28;20024;-47
2022/12/19 06:05:27;;;;;;;9.30;1.85;;;;;;;13.27;56.80;99533.31;5095048;28;20024;-46
2022/12/19 06:07:53;;;;;;;4.63;1.40;;;;;;;13.23;57.20;99532.09;5093796;28;20028;-46
2022/12/19 06:10:18;;;;;;;10.65;3.38;;;;;;;13.26;57.54;99523.81;5094990;28;20024;-46
2022/12/19 06:12:44;;;;;;;8.63;2.10;;;;;;;13.47;57.37;99522.06;5093615;28;20026;-47
2022/12/19 06:15:10;;;;;;;7.95;1.55;;;;;;;13.61;56.67;99529.00;5093717;28;20020;-47
2022/12/19 06:17:36;;;;;;;5.78;2.05;;;;;;;13.71;56.03;99524.16;5094884;28;20031;-46
2022/12/19 06:20:02;;;;;;;4.20;1.73;;;;;;;13.58;55.91;99534.66;5094796;28;20016;-46
2022/12/19 06:22:28;;;;;;;13.20;2.30;;;;;;;13.26;56.31;99541.44;5095075;28;20485;-46
2022/12/19 06:24:53;;;;;;;10.20;3.83;;;;;;;13.03;56.57;99537.28;5093240;28;20054;-47
2022/12/19 06:27:19;;;;;;;11.18;3.47;;;;;;;12.66;57.62;99525.31;5094692;28;20020;-46
2022/12/19 06:29:44;;;;;;;8.02;3.67;;;;;;;12.58;57.49;99542.88;5093276;28;20500;-46
2022/12/19 06:32:10;;;;;;;17.02;5.00;;;;;;;12.38;58.22;99542.75;5093251;28;20024;-46
2022/12/19 06:34:36;;;;;;;9.02;4.13;;;;;;;12.27;58.31;99539.81;5093200;28;20081;-46
2022/12/19 06:37:01;;;;;;;18.10;4.00;;;;;;;12.21;60.00;99535.31;5094458;28;20490;-49
2022/12/19 06:39:27;;;;;;;9.75;2.85;;;;;;;12.53;60.16;99532.09;5093107;28;20032;-49
2022/12/19 06:44:37;;;;;;;12.43;3.10;;;;;;;13.25;58.02;99524.81;5094631;28;20093;-49
2022/12/19 06:47:02;;;;;;;6.78;2.30;;;;;;;13.27;57.31;99532.53;5092989;28;20028;-49
2022/12/19 06:49:28;;;;;;;10.52;3.03;;;;;;;13.29;56.96;99530.50;5092901;28;20028;-49
2022/12/19 06:51:53;;;;;;;6.65;2.30;;;;;;;13.43;57.24;99542.75;5094199;28;20443;-49
2022/12/19 06:54:19;;;;;;;10.30;2.78;;;;;;;13.56;57.09;99529.63;5092865;28;20082;-49
2022/12/19 06:56:45;;;;;;;12.32;3.63;;;;;;;13.47;56.58;99522.06;5092803;28;20020;-49
2022/12/19 06:59:12;;;;;;;6.80;3.30;;;;;;;13.26;56.60;99509.78;5094112;28;20051;-47
2022/12/19 07:01:56;;;;;;;7.78;2.88;;;;;;;13.08;56.47;99507.69;5092656;28;20024;-47
2022/12/19 07:04:48;;;;;;;8.25;3.80;;;;;;;12.75;58.45;99503.88;5094002;28;20036;-47
2022/12/19 07:07:13;;;;;;;14.80;3.92;;;;;;;12.62;58.20;99518.81;5092700;28;20024;-47
2022/12/19 07:09:39;;;;;;;8.93;2.45;;;;;;;12.61;58.48;99517.97;5092494;28;20035;-47
2022/12/19 07:12:05;;;;;;;11.13;2.53;;;;;;;12.51;59.16;99525.41;5093849;28;20398;-47
2022/12/19 07:14:30;;;;;;;6.68;2.53;;;;;;;12.57;59.79;99516.75;5092466;28;20102;-47
2022/12/19 07:16:59;;;;;;;28.27;5.35;;;;;;;12.67;59.28;99532.22;5092370;28;20031;-47
2022/12/19 07:19:27;;;;;;;11.82;4.05;;;;;;;12.71;58.87;99533.44;5092403;28;20113;-49
2022/12/19 07:21:54;;;;;;;15.43;6.43;;;;;;;12.61;58.98;99535.59;5093538;28;20016;-49
2022/12/19 07:24:19;;;;;;;10.50;4.20;;;;;;;12.46;58.14;99535.72;5093390;28;20051;-49
2022/12/19 07:26:45;;;;;;;23.80;6.25;;;;;;;12.21;57.48;99537.94;5092224;28;20440;-47
2022/12/19 07:29:12;;;;;;;8.00;4.63;;;;;;;11.95;57.56;99541.94;5093414;28;20047;-47
2022/12/19 07:31:37;;;;;;;20.40;9.93;;;;;;;11.73;57.58;99543.72;5075367;28;20077;-47
2022/12/19 07:34:03;;;;;;;18.50;7.63;;;;;;;11.50;57.57;99543.91;5092120;28;20020;-47
2022/12/19 07:36:29;;;;;;;16.55;8.05;;;;;;;11.46;57.43;99542.63;5093348;28;20047;-47
2022/12/19 07:38:54;;;;;;;14.48;7.13;;;;;;;11.37;56.83;99542.75;5092070;28;20066;-49
2022/12/19 07:41:20;;;;;;;17.30;9.18;;;;;;;11.28;57.18;99546.47;5091966;28;20423;-49
2022/12/19 07:43:46;;;;;;;13.18;8.27;;;;;;;11.14;56.45;99542.84;5091995;28;20040;-49
2022/12/19 07:46:12;;;;;;;11.15;7.57;;;;;;;10.94;56.98;99558.34;5093491;28;20074;-49
2022/12/19 07:48:37;;;;;;;12.77;6.97;;;;;;;10.85;57.77;99559.44;5093357;28;20386;-50
2022/12/19 07:51:04;;;;;;;12.95;7.60;;;;;;;10.79;58.04;99560.16;5093116;28;20024;-50
2022/12/19 07:53:30;;;;;;;11.13;8.68;;;;;;;10.70;58.01;99550.72;5092717;28;20017;-49
2022/12/19 07:55:55;;;;;;;13.80;8.38;;;;;;;10.68;57.85;99563.22;5093028;28;20024;-50
2022/12/19 07:58:21;;;;;;;21.67;9.25;;;;;;;10.69;57.44;99565.66;5091645;28;20509;-50
2022/12/19 08:00:57;;;;;;;20.05;12.75;;;;;;;10.64;56.80;99577.69;5093169;28;20044;-49
2022/12/19 08:03:24;;;;;;;22.30;10.52;;;;;;;10.41;57.80;99578.56;5091516;28;20020;-49
2022/12/19 08:05:49;;;;;;;21.65;8.88;;;;;;;10.51;58.14;99576.50;5092828;28;20039;-50
2022/12/19 08:08:16;;;;;;;27.10;10.43;;;;;;;10.74;58.40;99575.63;5074572;28;20016;-49
2022/12/19 08:10:41;;;;;;;19.45;10.10;;;;;;;11.00;58.08;99581.25;5091428;28;20512;-49
2022/12/19 08:13:07;;;;;;;23.10;9.45;;;;;;;11.13;56.74;99587.72;5092722;28;20106;-49
2022/12/19 08:15:33;;;;;;;16.45;8.38;;;;;;;11.07;56.82;99586.63;5092865;28;20027;-49
2022/12/19 08:17:59;;;;;;;21.73;7.00;;;;;;;11.15;57.18;99572.59;5092622;28;20478;-49
2022/12/19 08:20:24;;;;;;;12.23;7.45;;;;;;;11.22;56.75;99573.47;5091235;28;20027;-50
2022/12/19 08:22:50;;;;;;;17.45;9.68;;;;;;;11.23;56.73;99571.66;5090947;28;20048;-50
2022/12/19 08:25:15;;;;;;;18.58;9.85;;;;;;;11.26;57.44;99572.09;5092481;28;20016;-50
2022/12/19 08:27:41;;;;;;;34.08;12.88;;;;;;;11.41;56.81;99590.50;5091145;28;20016;-49
2022/12/19 08:30:08;;;;;;;36.80;31.00;;;;;;;11.59;57.22;99582.22;5092465;28;20020;-50
2022/12/19 08:32:33;;;;;;;18.42;13.20;;;;;;;11.80;56.00;99579.63;5091018;28;20085;-50
2022/12/19 08:34:59;;;;;;;24.38;10.48;;;;;;;11.86;55.02;99587.78;5092371;28;20020;-49
2022/12/19 08:37:24;;;;;;;12.20;8.50;;;;;;;11.86;55.22;99585.16;5090930;28;20375;-49
2022/12/19 08:39:50;;;;;;;21.90;12.07;;;;;;;11.89;54.61;99583.00;5092238;28;20038;-49
2022/12/19 08:42:16;;;;;;;24.52;9.85;;;;;;;11.83;54.81;99588.13;5092232;28;20379;-49
2022/12/19 08:44:42;;;;;;;15.13;8.30;;;;;;;11.90;56.33;99587.25;5090891;28;20028;-47
2022/12/19 08:47:08;;;;;;;16.92;8.90;;;;;;;12.05;56.15;99583.75;5090785;28;20039;-47
2022/12/19 08:49:34;;;;;;;21.92;8.77;;;;;;;12.03;56.76;99576.03;5092071;28;20060;-47
2022/12/19 08:51:59;;;;;;;15.95;8.73;;;;;;;12.11;56.22;99575.09;5091988;28;20106;-47
2022/12/19 08:54:25;;;;;;;25.45;11.10;;;;;;;12.14;55.81;99585.25;5090728;28;20059;-47
2022/12/19 08:56:51;;;;;;;16.50;10.95;;;;;;;12.23;55.99;99585.94;5091992;28;20028;-47
2022/12/19 08:59:17;;;;;;;21.20;13.38;;;;;;;12.48;56.56;99581.09;5090584;28;20094;-47
2022/12/19 09:01:43;;;;;;;25.42;21.45;;;;;;;12.70;56.51;99579.25;5091932;28;20030;-47
2022/12/19 09:04:09;;;;;;;31.40;20.27;;;;;;;12.90;55.15;99590.72;5091886;28;20052;-47
2022/12/19 09:06:35;;;;;;;32.05;22.65;;;;;;;12.97;54.55;99599.47;5090903;28;20056;-47
2022/12/19 09:09:02;;;;;;;24.10;11.85;;;;;;;12.98;54.77;99598.47;5092030;28;20016;-47
2022/12/19 09:11:29;;;;;;;23.35;14.73;;;;;;;13.11;55.53;99591.66;5091860;28;20031;-47
2022/12/19 09:13:56;;;;;;;10.85;3.85;;;;;;;13.27;57.05;99588.69;5091789;28;20562;-47
2022/12/19 09:16:24;;;;;;;11.73;5.72;;;;;;;13.67;55.86;99591.53;5091775;28;20157;-47
2022/12/19 09:18:52;;;;;;;4.97;3.88;;;;;;;13.94;56.33;99581.03;5090457;28;20057;-47
2022/12/19 09:21:21;;;;;;;6.82;5.38;;;;;;;14.49;55.75;99572.97;5090355;28;20058;-47
2022/12/19 09:23:53;;;;;;;11.35;5.03;;;;;;;14.90;53.88;99567.44;5091507;28;20044;-47
2022/12/19 09:26:21;;;;;;;10.68;4.90;;;;;;;15.33;53.68;99577.50;5091759;28;20115;-47
2022/12/19 09:28:46;;;;;;;10.55;8.13;;;;;;;15.75;52.42;99587.72;5090299;28;20482;-47
2022/12/19 09:31:15;;;;;;;13.55;11.52;;;;;;;16.10;51.03;99601.38;5091706;28;20489;-47
2022/12/19 09:33:40;;;;;;;4.30;2.67;;;;;;;16.53;50.14;99591.91;5090345;28;20227;-47
2022/12/19 09:36:07;;;;;;;6.22;4.72;;;;;;;16.79;49.24;99588.19;5091641;28;20112;-47
2022/12/19 09:38:34;;;;;;;6.50;2.20;;;;;;;16.90;49.34;99574.25;5091588;28;20541;-47
2022/12/19 09:41:46;;;;;;;8.68;2.40;;;;;;;17.04;49.96;99579.41;5073451;28;20039;-47
2022/12/19 09:44:17;;;;;;;3.03;2.08;;;;;;;17.04;49.42;99582.88;5090266;28;20036;-47
2022/12/19 09:47:09;;;;;;;39.92;9.32;;;;;;;17.10;48.50;99584.66;5090241;28;20497;-47
2022/12/19 09:49:42;;;;;;;74.20;10.35;;;;;;;17.34;48.55;99582.97;5091506;28;20554;-47
2022/12/19 09:52:32;;;;;;;41.80;8.20;;;;;;;17.58;48.17;99569.78;5090145;28;20016;-47
2022/12/19 09:55:24;;;;;;;10.32;2.15;;;;;;;17.72;47.86;99568.56;5089422;28;20040;-47
2022/12/19 09:58:01;;;;;;;57.63;10.55;;;;;;;17.84;46.57;99567.84;5090217;28;20035;-47
2022/12/19 10:00:34;;;;;;;21.45;3.33;;;;;;;17.86;46.58;99579.84;5090156;28;20036;-47
2022/12/19 10:03:00;;;;;;;29.75;6.43;;;;;;;17.80;46.33;99571.97;5090099;28;20032;-47
2022/12/19 10:05:45;;;;;;;28.73;3.65;;;;;;;17.75;47.56;99581.41;5091308;28;20023;-47
2022/12/19 10:08:37;;;;;;;113.03;11.47;;;;;;;17.89;47.20;99570.66;5091670;28;20390;-47
2022/12/19 10:11:33;;;;;;;63.05;11.57;;;;;;;18.09;47.96;99576.47;5086672;28;20028;-47
2022/12/19 10:14:13;;;;;;;30.92;10.07;;;;;;;18.21;46.02;99576.50;5090465;28;20036;-47
2022/12/19 10:16:56;;;;;;;21.80;7.05;;;;;;;18.28;46.51;99587.00;5091824;28;20033;-48
2022/12/19 10:19:59;;;;;;;28.42;10.57;;;;;;;18.39;45.61;99580.91;5093588;28;20040;-47
2022/12/19 10:22:55;;;;;;;7.82;3.00;;;;;;;18.50;45.35;99576.66;5095093;28;20107;-47
2022/12/19 10:25:52;;;;;;;;;;;;;;;18.71;45.64;99570.75;5093844;28;20043;-47
2022/12/19 10:28:45;;;;;;;9.20;4.20;;;;;;;19.03;44.56;99558.94;5050879;28;19919;-48
2022/12/19 10:31:26;;;;;;;12.75;3.88;;;;;;;19.15;43.66;99565.84;5051024;28;20094;-47
2022/12/19 10:34:06;;;;;;;11.85;4.97;;;;;;;19.47;43.50;99569.94;5050930;28;20115;-47
2022/12/19 10:36:41;;;;;;;13.27;7.10;;;;;;;19.43;42.19;99569.59;5050924;28;20553;-48
2022/12/19 10:39:28;;;;;;;11.00;5.55;;;;;;;19.37;42.53;99589.19;5050666;28;20048;-47
2022/12/19 10:42:03;;;;;;;6.00;2.78;;;;;;;19.35;42.19;99573.44;5050749;28;20033;-48
2022/12/19 10:44:32;;;;;;;7.50;2.42;;;;;;;19.32;41.98;99581.91;5050745;28;20120;-47
2022/12/19 10:46:57;;;;;;;4.50;2.25;;;;;;;19.17;42.31;99581.59;5050788;28;20588;-48
2022/12/19 10:49:27;;;;;;;10.82;2.17;;;;;;;19.13;42.09;99567.16;5050492;28;20021;-47
2022/12/19 10:51:55;;;;;;;4.85;1.35;;;;;;;18.88;42.26;99560.25;5050494;28;20044;-47
2022/12/19 10:54:25;;;;;;;34.97;4.72;;;;;;;18.68;43.18;99575.72;5050617;28;20123;-48
2022/12/19 10:56:50;;;;;;;4.70;1.65;;;;;;;18.66;42.88;99559.19;5050590;28;20462;-47
2022/12/19 10:59:19;;;;;;;45.38;4.78;;;;;;;18.74;43.33;99566.81;5050574;28;20037;-47
2022/12/19 11:01:47;;;;;;;1.85;0.90;;;;;;;18.86;42.95;99554.34;5050454;28;20031;-47
2022/12/19 11:04:25;;;;;;;3.08;0.90;;;;;;;19.31;41.63;99550.22;5064007;28;20588;-47
2022/12/19 11:07:05;;;;;;;24.85;12.95;;;;;;;19.18;41.59;99539.84;5092896;28;20024;-47
2022/12/19 11:09:34;;;;;;;285.60;40.10;;;;;;;19.15;43.52;99546.44;5091842;28;20020;-47
2022/12/19 11:12:06;;;;;;;24.73;12.68;;;;;;;19.40;43.21;99540.00;5091497;28;20513;-48
2022/12/19 11:14:34;;;;;;;17.80;9.75;;;;;;;19.74;41.63;99532.94;5091615;28;20028;-47
2022/12/19 11:17:00;;;;;;;12.45;9.52;;;;;;;19.96;40.61;99503.75;5091598;28;20509;-46
2022/12/19 11:19:38;;;;;;;79.93;12.07;;;;;;;19.81;42.25;99516.81;5092941;28;20028;-45
2022/12/19 11:22:12;;;;;;;40.33;19.25;;;;;;;19.82;41.42;99516.56;5092698;28;20024;-45
2022/12/19 11:24:46;;;;;;;8.65;7.43;;;;;;;19.84;41.09;99511.81;5046139;28;1338777;-46
2022/12/19 11:27:41;;;;;;;36.92;10.25;;;;;;;19.58;41.71;99499.88;5092282;28;20071;-45
2022/12/19 11:30:19;;;;;;;9.50;6.25;;;;;;;19.21;42.68;99502.09;5090774;28;20118;-45
2022/12/19 11:32:48;;;;;;;6.82;6.03;;;;;;;19.45;42.64;99500.16;5092275;28;20059;-45
2022/12/19 11:35:20;;;;;;;6.70;6.07;;;;;;;19.27;41.99;99488.66;5092102;28;20034;-45
2022/12/19 11:37:55;;;;;;;10.32;8.82;;;;;;;19.01;43.05;99502.50;5093678;28;20077;-45
2022/12/19 11:40:36;;;;;;;9.48;7.28;;;;;;;18.74;43.31;99489.72;5092006;28;20050;-45
2022/12/19 11:43:41;;;;;;;8.20;6.57;;;;;;;18.68;43.77;99491.44;5093203;28;20085;-45
2022/12/19 11:46:22;;;;;;;9.85;8.82;;;;;;;18.47;43.96;99490.22;5093226;28;20646;-45
2022/12/19 11:49:09;;;;;;;11.18;5.03;;;;;;;18.22;46.15;99489.63;5091798;28;20032;-45